sensor_id;sensor_type;location;lat;lon;timestamp;pressure;altitude;pressure_sealevel;temperature;humidity
54455;BME280;40364;52.270;10.546;2023-02-19T00:01:27;100508.53;;;16.94;76.40
54455;BME280;40364;52.270;10.546;2023-02-19T00:03:56;100498.22;;;17.09;75.20
54455;BME280;40364;52.270;10.546;2023-02-19T00:06:25;100488.53;;;17.06;74.18
54455;BME280;40364;52.270;10.546;2023-02-19T00:08:52;100479.41;;;17.24;73.52
54455;BME280;40364;52.270;10.546;2023-02-19T00:11:23;100462.28;;;17.50;71.70
54455;BME280;40364;52.270;10.546;2023-02-19T00:13:51;100428.47;;;17.43;71.76
54455;BME280;40364;52.270;10.546;2023-02-19T00:16:23;100452.81;;;17.17;71.34
54455;BME280;40364;52.270;10.546;2023-02-19T00:18:50;100468.53;;;16.34;77.08
54455;BME280;40364;52.270;10.546;2023-02-19T00:21:18;100483.19;;;15.83;81.18
54455;BME280;40364;52.270;10.546;2023-02-19T00:23:47;100469.69;;;15.96;80.72
54455;BME280;40364;52.270;10.546;2023-02-19T00:26:14;100455.44;;;14.99;88.49
54455;BME280;40364;52.270;10.546;2023-02-19T00:28:42;100463.88;;;15.25;88.27
54455;BME280;40364;52.270;10.546;2023-02-19T00:31:15;100462.63;;;15.75;85.00
54455;BME280;40364;52.270;10.546;2023-02-19T00:33:43;100457.97;;;15.60;86.05
54455;BME280;40364;52.270;10.546;2023-02-19T00:36:09;100451.38;;;15.75;84.04
54455;BME280;40364;52.270;10.546;2023-02-19T00:38:37;100449.53;;;16.20;81.94
54455;BME280;40364;52.270;10.546;2023-02-19T00:41:04;100444.06;;;16.01;83.64
54455;BME280;40364;52.270;10.546;2023-02-19T00:43:45;100437.97;;;15.35;88.39
54455;BME280;40364;52.270;10.546;2023-02-19T00:46:12;100427.63;;;14.64;95.73
54455;BME280;40364;52.270;10.546;2023-02-19T00:48:39;100429.06;;;15.03;92.50
54455;BME280;40364;52.270;10.546;2023-02-19T00:51:05;100433.06;;;15.02;91.20
54455;BME280;40364;52.270;10.546;2023-02-19T00:53:32;100423.13;;;15.35;90.54
54455;BME280;40364;52.270;10.546;2023-02-19T00:55:59;100435.97;;;14.83;92.79
54455;BME280;40364;52.270;10.546;2023-02-19T00:58:26;100429.69;;;15.46;89.50
54455;BME280;40364;52.270;10.546;2023-02-19T01:00:54;100426.88;;;15.16;90.52
54455;BME280;40364;52.270;10.546;2023-02-19T01:03:20;100417.25;;;15.17;89.42
54455;BME280;40364;52.270;10.546;2023-02-19T01:05:47;100413.28;;;15.18;90.67
54455;BME280;40364;52.270;10.546;2023-02-19T01:08:14;100404.53;;;14.97;90.58
54455;BME280;40364;52.270;10.546;2023-02-19T01:10:41;100403.06;;;15.06;92.22
54455;BME280;40364;52.270;10.546;2023-02-19T01:13:08;100401.25;;;15.18;89.62
54455;BME280;40364;52.270;10.546;2023-02-19T01:15:35;100400.94;;;14.96;91.23
54455;BME280;40364;52.270;10.546;2023-02-19T01:18:04;100393.72;;;14.99;92.04
54455;BME280;40364;52.270;10.546;2023-02-19T01:20:31;100385.53;;;14.87;92.63
54455;BME280;40364;52.270;10.546;2023-02-19T01:22:57;100375.19;;;14.64;95.60
54455;BME280;40364;52.270;10.546;2023-02-19T01:25:24;100367.91;;;14.86;94.21
54455;BME280;40364;52.270;10.546;2023-02-19T01:27:51;100359.72;;;14.28;100.00
54455;BME280;40364;52.270;10.546;2023-02-19T01:30:18;100363.66;;;14.96;97.25
54455;BME280;40364;52.270;10.546;2023-02-19T01:32:44;100360.94;;;14.50;100.00
54455;BME280;40364;52.270;10.546;2023-02-19T01:35:12;100356.78;;;15.20;97.29
54455;BME280;40364;52.270;10.546;2023-02-19T01:37:39;100348.09;;;15.02;100.00
54455;BME280;40364;52.270;10.546;2023-02-19T01:40:06;100340.31;;;15.48;98.12
54455;BME280;40364;52.270;10.546;2023-02-19T01:42:33;100331.53;;;15.20;100.00
54455;BME280;40364;52.270;10.546;2023-02-19T01:45:20;100348.38;;;15.20;99.39
54455;BME280;40364;52.270;10.546;2023-02-19T01:47:51;100341.63;;;15.24;100.00
54455;BME280;40364;52.270;10.546;2023-02-19T01:50:23;100356.53;;;15.62;95.96
54455;BME280;40364;52.270;10.546;2023-02-19T01:52:51;100353.81;;;15.09;100.00
54455;BME280;40364;52.270;10.546;2023-02-19T01:55:18;100349.44;;;15.41;100.00
54455;BME280;40364;52.270;10.546;2023-02-19T01:57:47;100361.69;;;15.56;100.00
54455;BME280;40364;52.270;10.546;2023-02-19T02:00:17;100371.72;;;15.27;100.00
54455;BME280;40364;52.270;10.546;2023-02-19T02:02:48;100377.38;;;15.04;100.00
54455;BME280;40364;52.270;10.546;2023-02-19T02:05:24;100359.19;;;14.91;100.00
54455;BME280;40364;52.270;10.546;2023-02-19T02:07:55;100342.88;;;14.74;100.00
54455;BME280;40364;52.270;10.546;2023-02-19T02:10:39;100343.75;;;14.78;100.00
54455;BME280;40364;52.270;10.546;2023-02-19T02:13:07;100334.63;;;14.58;100.00
54455;BME280;40364;52.270;10.546;2023-02-19T02:15:44;100332.13;;;13.42;100.00
54455;BME280;40364;52.270;10.546;2023-02-19T02:18:22;100352.91;;;13.83;100.00
54455;BME280;40364;52.270;10.546;2023-02-19T02:21:02;100354.06;;;14.25;100.00
54455;BME280;40364;52.270;10.546;2023-02-19T02:23:39;100345.31;;;14.75;100.00
54455;BME280;40364;52.270;10.546;2023-02-19T02:26:27;100361.16;;;14.19;100.00
54455;BME280;40364;52.270;10.546;2023-02-19T02:29:17;100341.25;;;14.46;100.00
54455;BME280;40364;52.270;10.546;2023-02-19T02:31:48;100333.00;;;14.11;100.00
54455;BME280;40364;52.270;10.546;2023-02-19T02:34:18;100324.81;;;13.57;100.00
54455;BME280;40364;52.270;10.546;2023-02-19T02:36:48;100318.34;;;13.95;100.00
54455;BME280;40364;52.270;10.546;2023-02-19T02:39:19;100331.91;;;14.16;100.00
54455;BME280;40364;52.270;10.546;2023-02-19T02:41:50;100322.81;;;14.23;100.00
54455;BME280;40364;52.270;10.546;2023-02-19T02:44:34;100320.00;;;14.72;100.00
54455;BME280;40364;52.270;10.546;2023-02-19T02:47:03;100311.78;;;14.33;100.00
54455;BME280;40364;52.270;10.546;2023-02-19T02:49:33;100329.34;;;14.30;100.00
54455;BME280;40364;52.270;10.546;2023-02-19T02:52:21;100323.34;;;14.09;100.00
54455;BME280;40364;52.270;10.546;2023-02-19T02:55:06;100328.59;;;14.33;100.00
54455;BME280;40364;52.270;10.546;2023-02-19T02:57:34;100338.81;;;13.38;100.00
54455;BME280;40364;52.270;10.546;2023-02-19T03:00:01;100330.47;;;14.03;100.00
54455;BME280;40364;52.270;10.546;2023-02-19T03:02:30;100328.38;;;14.68;100.00
54455;BME280;40364;52.270;10.546;2023-02-19T03:05:01;100320.81;;;14.46;100.00
54455;BME280;40364;52.270;10.546;2023-02-19T03:07:50;100324.34;;;14.66;100.00
54455;BME280;40364;52.270;10.546;2023-02-19T03:10:19;100317.88;;;14.62;100.00
54455;BME280;40364;52.270;10.546;2023-02-19T03:12:50;100320.34;;;14.93;100.00
54455;BME280;40364;52.270;10.546;2023-02-19T03:15:40;100315.16;;;14.69;100.00
54455;BME280;40364;52.270;10.546;2023-02-19T03:18:45;100321.63;;;14.73;100.00
54455;BME280;40364;52.270;10.546;2023-02-19T03:21:34;100330.28;;;13.92;100.00
54455;BME280;40364;52.270;10.546;2023-02-19T03:24:04;100325.38;;;14.80;100.00
54455;BME280;40364;52.270;10.546;2023-02-19T03:26:47;100325.34;;;14.08;100.00
54455;BME280;40364;52.270;10.546;2023-02-19T03:29:20;100327.47;;;14.15;100.00
54455;BME280;40364;52.270;10.546;2023-02-19T03:31:53;100325.50;;;15.18;100.00
54455;BME280;40364;52.270;10.546;2023-02-19T03:34:25;100321.22;;;15.27;100.00
54455;BME280;40364;52.270;10.546;2023-02-19T03:36:59;100321.44;;;14.85;100.00
54455;BME280;40364;52.270;10.546;2023-02-19T03:39:28;100321.69;;;14.76;100.00
54455;BME280;40364;52.270;10.546;2023-02-19T03:42:00;100332.56;;;13.87;100.00
54455;BME280;40364;52.270;10.546;2023-02-19T03:44:37;100340.56;;;13.65;100.00
54455;BME280;40364;52.270;10.546;2023-02-19T03:47:11;100346.22;;;13.69;100.00
54455;BME280;40364;52.270;10.546;2023-02-19T03:49:44;100375.63;;;13.40;100.00
54455;BME280;40364;52.270;10.546;2023-02-19T03:52:15;100383.53;;;12.84;100.00
54455;BME280;40364;52.270;10.546;2023-02-19T03:54:51;100393.66;;;13.42;100.00
54455;BME280;40364;52.270;10.546;2023-02-19T03:57:27;100385.59;;;12.71;100.00
54455;BME280;40364;52.270;10.546;2023-02-19T03:59:58;100395.34;;;12.77;100.00
54455;BME280;40364;52.270;10.546;2023-02-19T04:02:28;100413.81;;;12.19;100.00
54455;BME280;40364;52.270;10.546;2023-02-19T04:05:04;100414.09;;;12.61;100.00
54455;BME280;40364;52.270;10.546;2023-02-19T04:07:36;100419.03;;;12.20;100.00
54455;BME280;40364;52.270;10.546;2023-02-19T04:10:07;100414.88;;;12.14;100.00
54455;BME280;40364;52.270;10.546;2023-02-19T04:12:35;100420.16;;;12.03;100.00
54455;BME280;40364;52.270;10.546;2023-02-19T04:15:07;100430.66;;;12.54;100.00
54455;BME280;40364;52.270;10.546;2023-02-19T04:17:38;100422.94;;;12.78;100.00
54455;BME280;40364;52.270;10.546;2023-02-19T04:20:10;100444.22;;;12.52;100.00
54455;BME280;40364;52.270;10.546;2023-02-19T04:22:39;100444.56;;;12.50;100.00
54455;BME280;40364;52.270;10.546;2023-02-19T04:25:07;100438.13;;;12.18;100.00
54455;BME280;40364;52.270;10.546;2023-02-19T04:27:35;100438.19;;;12.06;100.00
54455;BME280;40364;52.270;10.546;2023-02-19T04:30:03;100432.97;;;12.04;100.00
54455;BME280;40364;52.270;10.546;2023-02-19T04:32:30;100445.63;;;11.74;100.00
54455;BME280;40364;52.270;10.546;2023-02-19T04:34:56;100447.56;;;12.13;100.00
54455;BME280;40364;52.270;10.546;2023-02-19T04:37:24;100456.91;;;11.77;100.00
54455;BME280;40364;52.270;10.546;2023-02-19T04:39:51;100460.53;;;11.66;100.00
54455;BME280;40364;52.270;10.546;2023-02-19T04:42:18;100474.47;;;12.06;100.00
54455;BME280;40364;52.270;10.546;2023-02-19T04:44:44;100471.31;;;12.35;100.00
54455;BME280;40364;52.270;10.546;2023-02-19T04:47:11;100479.16;;;12.61;100.00
54455;BME280;40364;52.270;10.546;2023-02-19T04:49:38;100480.94;;;12.54;100.00
54455;BME280;40364;52.270;10.546;2023-02-19T04:52:04;100488.03;;;12.20;100.00
54455;BME280;40364;52.270;10.546;2023-02-19T04:54:32;100496.28;;;12.60;100.00
54455;BME280;40364;52.270;10.546;2023-02-19T04:56:59;100495.22;;;13.11;100.00
54455;BME280;40364;52.270;10.546;2023-02-19T04:59:26;100502.53;;;13.00;100.00
54455;BME280;40364;52.270;10.546;2023-02-19T05:01:53;100505.25;;;12.81;98.30
54455;BME280;40364;52.270;10.546;2023-02-19T05:04:21;100507.91;;;12.46;100.00
54455;BME280;40364;52.270;10.546;2023-02-19T05:06:48;100522.25;;;11.76;100.00
54455;BME280;40364;52.270;10.546;2023-02-19T05:09:15;100518.44;;;11.57;100.00
54455;BME280;40364;52.270;10.546;2023-02-19T05:11:43;100537.38;;;10.78;100.00
54455;BME280;40364;52.270;10.546;2023-02-19T05:14:10;100534.63;;;11.14;100.00
54455;BME280;40364;52.270;10.546;2023-02-19T05:16:36;100539.84;;;12.05;100.00
54455;BME280;40364;52.270;10.546;2023-02-19T05:19:03;100545.06;;;11.42;100.00
54455;BME280;40364;52.270;10.546;2023-02-19T05:21:30;100549.94;;;11.45;100.00
54455;BME280;40364;52.270;10.546;2023-02-19T05:23:56;100557.63;;;11.24;100.00
54455;BME280;40364;52.270;10.546;2023-02-19T05:26:23;100545.88;;;10.94;100.00
54455;BME280;40364;52.270;10.546;2023-02-19T05:28:52;100544.38;;;11.45;100.00
54455;BME280;40364;52.270;10.546;2023-02-19T05:31:20;100548.31;;;11.56;100.00
54455;BME280;40364;52.270;10.546;2023-02-19T05:33:46;100562.75;;;11.22;100.00
54455;BME280;40364;52.270;10.546;2023-02-19T05:36:16;100582.25;;;11.22;100.00
54455;BME280;40364;52.270;10.546;2023-02-19T05:38:43;100597.09;;;11.01;100.00
54455;BME280;40364;52.270;10.546;2023-02-19T05:41:11;100595.53;;;10.34;100.00
54455;BME280;40364;52.270;10.546;2023-02-19T05:43:39;100606.22;;;10.44;100.00
54455;BME280;40364;52.270;10.546;2023-02-19T05:46:09;100625.72;;;10.77;100.00
54455;BME280;40364;52.270;10.546;2023-02-19T05:48:36;100624.19;;;10.68;100.00
54455;BME280;40364;52.270;10.546;2023-02-19T05:51:04;100623.88;;;10.49;100.00
54455;BME280;40364;52.270;10.546;2023-02-19T05:53:32;100625.44;;;10.91;100.00
54455;BME280;40364;52.270;10.546;2023-02-19T05:55:59;100634.34;;;10.52;100.00
54455;BME280;40364;52.270;10.546;2023-02-19T05:58:26;100641.84;;;9.59;100.00
54455;BME280;40364;52.270;10.546;2023-02-19T06:00:52;100643.25;;;10.24;100.00
54455;BME280;40364;52.270;10.546;2023-02-19T06:03:21;100651.19;;;10.88;100.00
54455;BME280;40364;52.270;10.546;2023-02-19T06:05:48;100650.78;;;11.10;99.44
54455;BME280;40364;52.270;10.546;2023-02-19T06:08:15;100666.19;;;10.63;98.78
54455;BME280;40364;52.270;10.546;2023-02-19T06:10:42;100680.69;;;10.35;98.50
54455;BME280;40364;52.270;10.546;2023-02-19T06:13:09;100668.44;;;9.77;97.94
54455;BME280;40364;52.270;10.546;2023-02-19T06:15:36;100667.56;;;9.86;100.00
54455;BME280;40364;52.270;10.546;2023-02-19T06:18:03;100683.16;;;9.78;100.00
54455;BME280;40364;52.270;10.546;2023-02-19T06:20:31;100693.84;;;10.26;99.77
54455;BME280;40364;52.270;10.546;2023-02-19T06:22:58;100690.44;;;10.62;96.60
54455;BME280;40364;52.270;10.546;2023-02-19T06:25:24;100689.13;;;9.89;100.00
54455;BME280;40364;52.270;10.546;2023-02-19T06:27:51;100705.47;;;9.99;99.27
54455;BME280;40364;52.270;10.546;2023-02-19T06:30:18;100695.41;;;10.36;100.00
54455;BME280;40364;52.270;10.546;2023-02-19T06:32:45;100713.19;;;10.43;97.66
54455;BME280;40364;52.270;10.546;2023-02-19T06:35:12;100725.47;;;10.84;93.86
54455;BME280;40364;52.270;10.546;2023-02-19T06:37:39;100732.84;;;10.68;95.95
54455;BME280;40364;52.270;10.546;2023-02-19T06:40:07;100729.91;;;10.43;94.88
54455;BME280;40364;52.270;10.546;2023-02-19T06:42:34;100750.94;;;10.03;96.85
54455;BME280;40364;52.270;10.546;2023-02-19T06:45:01;100759.63;;;10.01;98.76
54455;BME280;40364;52.270;10.546;2023-02-19T06:47:29;100761.63;;;10.51;97.39
54455;BME280;40364;52.270;10.546;2023-02-19T06:49:56;100771.44;;;10.78;93.19
54455;BME280;40364;52.270;10.546;2023-02-19T06:52:23;100777.94;;;10.82;93.21
54455;BME280;40364;52.270;10.546;2023-02-19T06:54:51;100789.50;;;10.72;90.56
54455;BME280;40364;52.270;10.546;2023-02-19T06:57:18;100800.22;;;11.24;87.42
54455;BME280;40364;52.270;10.546;2023-02-19T06:59:45;100803.81;;;11.57;85.56
54455;BME280;40364;52.270;10.546;2023-02-19T07:02:12;100807.56;;;11.07;86.84
54455;BME280;40364;52.270;10.546;2023-02-19T07:04:39;100803.72;;;10.79;88.87
54455;BME280;40364;52.270;10.546;2023-02-19T07:07:09;100814.13;;;10.40;90.22
54455;BME280;40364;52.270;10.546;2023-02-19T07:09:36;100816.91;;;10.91;88.28
54455;BME280;40364;52.270;10.546;2023-02-19T07:12:05;100823.03;;;10.84;86.69
54455;BME280;40364;52.270;10.546;2023-02-19T07:14:32;100834.69;;;10.27;87.76
54455;BME280;40364;52.270;10.546;2023-02-19T07:16:59;100837.34;;;10.74;87.65
54455;BME280;40364;52.270;10.546;2023-02-19T07:19:26;100843.53;;;10.59;87.35
54455;BME280;40364;52.270;10.546;2023-02-19T07:21:53;100856.88;;;11.16;85.43
54455;BME280;40364;52.270;10.546;2023-02-19T07:24:19;100864.88;;;10.75;84.47
54455;BME280;40364;52.270;10.546;2023-02-19T07:26:47;100872.06;;;11.27;86.08
54455;BME280;40364;52.270;10.546;2023-02-19T07:29:15;100868.09;;;11.07;86.18
54455;BME280;40364;52.270;10.546;2023-02-19T07:31:42;100880.88;;;10.87;80.28
54455;BME280;40364;52.270;10.546;2023-02-19T07:34:09;100882.44;;;11.18;82.59
54455;BME280;40364;52.270;10.546;2023-02-19T07:36:36;100897.16;;;9.92;88.69
54455;BME280;40364;52.270;10.546;2023-02-19T07:39:03;100906.97;;;11.03;83.07
54455;BME280;40364;52.270;10.546;2023-02-19T07:41:31;100909.31;;;11.22;83.33
54455;BME280;40364;52.270;10.546;2023-02-19T07:43:57;100909.69;;;10.91;82.07
54455;BME280;40364;52.270;10.546;2023-02-19T07:46:27;100916.09;;;11.33;83.96
54455;BME280;40364;52.270;10.546;2023-02-19T07:48:54;100915.09;;;11.38;81.71
54455;BME280;40364;52.270;10.546;2023-02-19T07:51:22;100913.78;;;10.18;90.85
54455;BME280;40364;52.270;10.546;2023-02-19T07:53:49;100925.03;;;11.27;86.11
54455;BME280;40364;52.270;10.546;2023-02-19T07:56:16;100918.41;;;11.10;85.17
54455;BME280;40364;52.270;10.546;2023-02-19T07:58:44;100932.16;;;11.36;85.33
54455;BME280;40364;52.270;10.546;2023-02-19T08:01:13;100934.22;;;11.48;82.06
54455;BME280;40364;52.270;10.546;2023-02-19T08:03:42;100932.88;;;11.66;82.95
54455;BME280;40364;52.270;10.546;2023-02-19T08:06:09;100949.53;;;11.96;80.96
54455;BME280;40364;52.270;10.546;2023-02-19T08:08:36;100958.22;;;12.15;78.69
54455;BME280;40364;52.270;10.546;2023-02-19T08:11:05;100964.44;;;12.33;79.34
54455;BME280;40364;52.270;10.546;2023-02-19T08:13:50;100959.88;;;12.28;75.81
54455;BME280;40364;52.270;10.546;2023-02-19T08:16:18;100955.78;;;11.80;77.75
54455;BME280;40364;52.270;10.546;2023-02-19T08:18:46;100967.25;;;12.00;77.39
54455;BME280;40364;52.270;10.546;2023-02-19T08:21:13;100970.03;;;10.87;81.13
54455;BME280;40364;52.270;10.546;2023-02-19T08:23:42;100977.53;;;11.25;82.68
54455;BME280;40364;52.270;10.546;2023-02-19T08:26:10;100973.38;;;10.72;83.60
54455;BME280;40364;52.270;10.546;2023-02-19T08:28:36;100984.53;;;10.72;84.21
54455;BME280;40364;52.270;10.546;2023-02-19T08:31:05;100982.09;;;11.50;80.18
54455;BME280;40364;52.270;10.546;2023-02-19T08:33:33;100992.19;;;11.84;78.95
54455;BME280;40364;52.270;10.546;2023-02-19T08:36:03;101006.13;;;12.05;78.01
54455;BME280;40364;52.270;10.546;2023-02-19T08:38:30;101018.53;;;11.95;79.48
54455;BME280;40364;52.270;10.546;2023-02-19T08:40:59;101010.06;;;10.83;82.17
54455;BME280;40364;52.270;10.546;2023-02-19T08:43:26;101023.47;;;11.27;81.80
54455;BME280;40364;52.270;10.546;2023-02-19T08:45:53;101029.91;;;11.90;79.95
54455;BME280;40364;52.270;10.546;2023-02-19T08:48:20;101029.66;;;10.65;83.08
54455;BME280;40364;52.270;10.546;2023-02-19T08:50:54;101039.34;;;11.56;82.59
54455;BME280;40364;52.270;10.546;2023-02-19T08:53:28;101040.06;;;11.44;81.09
54455;BME280;40364;52.270;10.546;2023-02-19T08:55:55;101036.97;;;12.08;78.60
54455;BME280;40364;52.270;10.546;2023-02-19T08:58:22;101040.94;;;11.36;80.27
54455;BME280;40364;52.270;10.546;2023-02-19T09:00:51;101050.13;;;11.37;81.13
54455;BME280;40364;52.270;10.546;2023-02-19T09:03:18;101058.00;;;11.05;77.90
54455;BME280;40364;52.270;10.546;2023-02-19T09:05:45;101056.47;;;11.67;77.87
54455;BME280;40364;52.270;10.546;2023-02-19T09:08:12;101062.81;;;11.55;78.71
54455;BME280;40364;52.270;10.546;2023-02-19T09:10:41;101067.44;;;12.34;75.14
54455;BME280;40364;52.270;10.546;2023-02-19T09:13:08;101068.53;;;12.42;72.64
54455;BME280;40364;52.270;10.546;2023-02-19T09:15:37;101072.84;;;11.98;73.06
54455;BME280;40364;52.270;10.546;2023-02-19T09:18:04;101068.50;;;10.62;83.33
54455;BME280;40364;52.270;10.546;2023-02-19T09:20:31;101076.31;;;10.77;85.29
54455;BME280;40364;52.270;10.546;2023-02-19T09:22:58;101085.81;;;11.52;77.93
54455;BME280;40364;52.270;10.546;2023-02-19T09:25:25;101080.03;;;11.28;78.30
54455;BME280;40364;52.270;10.546;2023-02-19T09:27:56;101079.47;;;10.67;86.01
54455;BME280;40364;52.270;10.546;2023-02-19T09:30:23;101080.47;;;11.38;81.88
54455;BME280;40364;52.270;10.546;2023-02-19T09:32:50;101072.34;;;11.54;80.71
54455;BME280;40364;52.270;10.546;2023-02-19T09:35:17;101079.59;;;11.97;78.58
54455;BME280;40364;52.270;10.546;2023-02-19T09:37:43;101083.41;;;12.13;77.67
54455;BME280;40364;52.270;10.546;2023-02-19T09:40:10;101078.41;;;11.27;75.09
54455;BME280;40364;52.270;10.546;2023-02-19T09:42:39;101081.91;;;11.95;79.20
54455;BME280;40364;52.270;10.546;2023-02-19T09:45:15;101091.53;;;12.06;74.77
54455;BME280;40364;52.270;10.546;2023-02-19T09:47:44;101103.56;;;11.98;77.99
54455;BME280;40364;52.270;10.546;2023-02-19T09:50:15;101106.66;;;11.84;74.76
54455;BME280;40364;52.270;10.546;2023-02-19T09:52:46;101121.50;;;12.18;72.52
54455;BME280;40364;52.270;10.546;2023-02-19T09:55:17;101120.72;;;12.29;71.35
54455;BME280;40364;52.270;10.546;2023-02-19T09:57:46;101115.56;;;11.77;73.47
54455;BME280;40364;52.270;10.546;2023-02-19T10:00:21;101115.44;;;13.27;70.35
54455;BME280;40364;52.270;10.546;2023-02-19T10:02:53;101120.75;;;12.08;71.07
54455;BME280;40364;52.270;10.546;2023-02-19T10:05:22;101131.09;;;11.87;74.42
54455;BME280;40364;52.270;10.546;2023-02-19T10:07:53;101132.66;;;11.67;72.10
54455;BME280;40364;52.270;10.546;2023-02-19T10:10:26;101142.13;;;12.25;69.00
54455;BME280;40364;52.270;10.546;2023-02-19T10:12:58;101124.94;;;12.35;70.13
54455;BME280;40364;52.270;10.546;2023-02-19T10:15:32;101140.34;;;12.41;67.04
54455;BME280;40364;52.270;10.546;2023-02-19T10:18:01;101160.13;;;13.02;67.22
54455;BME280;40364;52.270;10.546;2023-02-19T10:20:29;101171.94;;;12.75;66.68
54455;BME280;40364;52.270;10.546;2023-02-19T10:23:01;101172.66;;;12.51;67.80
54455;BME280;40364;52.270;10.546;2023-02-19T10:25:29;101171.13;;;11.91;67.64
54455;BME280;40364;52.270;10.546;2023-02-19T10:27:58;101184.75;;;11.55;68.89
54455;BME280;40364;52.270;10.546;2023-02-19T10:30:30;101178.66;;;12.20;66.20
54455;BME280;40364;52.270;10.546;2023-02-19T10:33:01;101188.72;;;12.33;65.34
54455;BME280;40364;52.270;10.546;2023-02-19T10:35:29;101193.22;;;12.67;65.89
54455;BME280;40364;52.270;10.546;2023-02-19T10:37:57;101208.75;;;12.56;66.05
54455;BME280;40364;52.270;10.546;2023-02-19T10:40:27;101203.84;;;13.52;62.26
54455;BME280;40364;52.270;10.546;2023-02-19T10:42:56;101217.78;;;13.28;63.89
54455;BME280;40364;52.270;10.546;2023-02-19T10:45:31;101202.22;;;13.88;61.23
54455;BME280;40364;52.270;10.546;2023-02-19T10:48:01;101228.94;;;13.97;60.38
54455;BME280;40364;52.270;10.546;2023-02-19T10:50:30;101234.88;;;12.81;60.15
54455;BME280;40364;52.270;10.546;2023-02-19T10:52:59;101239.47;;;13.31;61.67
54455;BME280;40364;52.270;10.546;2023-02-19T10:55:32;101231.16;;;13.67;59.90
54455;BME280;40364;52.270;10.546;2023-02-19T10:58:21;101239.41;;;12.23;61.06
54455;BME280;40364;52.270;10.546;2023-02-19T11:01:17;101237.28;;;11.53;66.54
54455;BME280;40364;52.270;10.546;2023-02-19T11:03:49;101235.63;;;11.98;66.32
54455;BME280;40364;52.270;10.546;2023-02-19T11:06:20;101245.44;;;12.75;62.24
54455;BME280;40364;52.270;10.546;2023-02-19T11:08:53;101245.41;;;12.96;60.10
54455;BME280;40364;52.270;10.546;2023-02-19T11:11:26;101231.00;;;12.53;63.42
54455;BME280;40364;52.270;10.546;2023-02-19T11:13:56;101237.22;;;12.91;59.78
54455;BME280;40364;52.270;10.546;2023-02-19T11:16:37;101228.31;;;12.56;61.64
54455;BME280;40364;52.270;10.546;2023-02-19T11:19:05;101222.72;;;12.77;60.67
54455;BME280;40364;52.270;10.546;2023-02-19T11:21:32;101218.72;;;12.45;60.72
54455;BME280;40364;52.270;10.546;2023-02-19T11:24:01;101239.00;;;13.29;57.66
54455;BME280;40364;52.270;10.546;2023-02-19T11:26:30;101237.09;;;14.79;54.44
54455;BME280;40364;52.270;10.546;2023-02-19T11:29:00;101233.13;;;13.79;54.07
54455;BME280;40364;52.270;10.546;2023-02-19T11:31:30;101242.53;;;13.05;57.08
54455;BME280;40364;52.270;10.546;2023-02-19T11:33:59;101242.22;;;13.64;55.58
54455;BME280;40364;52.270;10.546;2023-02-19T11:36:36;101256.41;;;13.46;53.31
54455;BME280;40364;52.270;10.546;2023-02-19T11:39:20;101238.38;;;13.68;52.32
54455;BME280;40364;52.270;10.546;2023-02-19T11:42:01;101260.09;;;14.20;51.58
54455;BME280;40364;52.270;10.546;2023-02-19T11:44:41;101255.63;;;14.96;51.08
54455;BME280;40364;52.270;10.546;2023-02-19T11:50:35;101245.34;;;15.15;50.20
54455;BME280;40364;52.270;10.546;2023-02-19T11:53:14;101240.69;;;15.35;49.25
54455;BME280;40364;52.270;10.546;2023-02-19T11:55:51;101247.56;;;14.54;49.46
54455;BME280;40364;52.270;10.546;2023-02-19T12:01:48;101257.69;;;13.37;53.82
54455;BME280;40364;52.270;10.546;2023-02-19T12:04:48;101254.56;;;13.38;52.50
54455;BME280;40364;52.270;10.546;2023-02-19T12:07:31;101270.97;;;13.97;51.24
54455;BME280;40364;52.270;10.546;2023-02-19T12:10:09;101271.91;;;13.11;52.46
54455;BME280;40364;52.270;10.546;2023-02-19T12:12:51;101269.16;;;13.44;52.45
54455;BME280;40364;52.270;10.546;2023-02-19T12:15:47;101266.63;;;14.48;49.37
54455;BME280;40364;52.270;10.546;2023-02-19T12:18:49;101258.50;;;13.04;53.10
54455;BME280;40364;52.270;10.546;2023-02-19T12:21:31;101269.13;;;12.90;51.33
54455;BME280;40364;52.270;10.546;2023-02-19T12:24:31;101251.81;;;13.87;49.41
54455;BME280;40364;52.270;10.546;2023-02-19T12:27:14;101255.25;;;15.25;47.60
54455;BME280;40364;52.270;10.546;2023-02-19T12:29:54;101256.22;;;14.89;47.13
54455;BME280;40364;52.270;10.546;2023-02-19T12:32:33;101255.47;;;16.62;45.13
54455;BME280;40364;52.270;10.546;2023-02-19T12:35:24;101261.66;;;14.70;45.74
54455;BME280;40364;52.270;10.546;2023-02-19T12:38:01;101264.41;;;14.54;48.33
54455;BME280;40364;52.270;10.546;2023-02-19T12:40:37;101263.81;;;14.48;48.12
54455;BME280;40364;52.270;10.546;2023-02-19T12:43:13;101265.09;;;14.51;47.10
54455;BME280;40364;52.270;10.546;2023-02-19T12:45:46;101271.56;;;14.03;48.36
54455;BME280;40364;52.270;10.546;2023-02-19T12:48:21;101265.44;;;13.64;49.88
54455;BME280;40364;52.270;10.546;2023-02-19T12:50:55;101265.56;;;13.68;49.20
54455;BME280;40364;52.270;10.546;2023-02-19T12:53:32;101276.16;;;13.62;49.22
54455;BME280;40364;52.270;10.546;2023-02-19T12:56:04;101280.19;;;12.87;50.11
54455;BME280;40364;52.270;10.546;2023-02-19T12:58:37;101294.84;;;13.04;49.39
54455;BME280;40364;52.270;10.546;2023-02-19T13:01:07;101295.41;;;12.77;50.79
54455;BME280;40364;52.270;10.546;2023-02-19T13:03:40;101292.31;;;12.91;50.90